sensor_id;sensor_type;location;lat;lon;timestamp;temperature;humidity
19060;DHT22;9663;48.996;8.334;2023-06-22T00:02:18;26.00;47.40
19060;DHT22;9663;48.996;8.334;2023-06-22T00:04:44;25.90;47.50
19060;DHT22;9663;48.996;8.334;2023-06-22T00:07:10;25.80;47.50
19060;DHT22;9663;48.996;8.334;2023-06-22T00:09:36;25.90;47.70
19060;DHT22;9663;48.996;8.334;2023-06-22T00:12:02;25.80;47.80
19060;DHT22;9663;48.996;8.334;2023-06-22T00:14:28;25.80;47.90
19060;DHT22;9663;48.996;8.334;2023-06-22T00:16:53;25.70;48.00
19060;DHT22;9663;48.996;8.334;2023-06-22T00:19:23;25.80;48.10
19060;DHT22;9663;48.996;8.334;2023-06-22T00:21:50;25.70;48.10
19060;DHT22;9663;48.996;8.334;2023-06-22T00:24:19;25.70;48.40
19060;DHT22;9663;48.996;8.334;2023-06-22T00:26:45;25.60;48.40
19060;DHT22;9663;48.996;8.334;2023-06-22T00:29:11;25.60;48.60
19060;DHT22;9663;48.996;8.334;2023-06-22T00:31:37;25.50;48.90
19060;DHT22;9663;48.996;8.334;2023-06-22T00:34:03;25.40;49.60
19060;DHT22;9663;48.996;8.334;2023-06-22T00:36:28;25.30;49.30
19060;DHT22;9663;48.996;8.334;2023-06-22T00:38:54;25.30;49.60
19060;DHT22;9663;48.996;8.334;2023-06-22T00:41:19;25.30;49.70
19060;DHT22;9663;48.996;8.334;2023-06-22T00:43:45;25.20;49.70
19060;DHT22;9663;48.996;8.334;2023-06-22T00:46:11;25.10;49.70
19060;DHT22;9663;48.996;8.334;2023-06-22T00:48:38;25.00;49.90
19060;DHT22;9663;48.996;8.334;2023-06-22T00:51:05;25.00;50.10
19060;DHT22;9663;48.996;8.334;2023-06-22T00:53:31;24.90;50.30
19060;DHT22;9663;48.996;8.334;2023-06-22T00:56:00;24.80;50.50
19060;DHT22;9663;48.996;8.334;2023-06-22T00:58:26;24.70;50.70
19060;DHT22;9663;48.996;8.334;2023-06-22T01:00:51;24.60;50.80
19060;DHT22;9663;48.996;8.334;2023-06-22T01:03:17;24.60;51.00
19060;DHT22;9663;48.996;8.334;2023-06-22T01:05:44;24.50;51.30
19060;DHT22;9663;48.996;8.334;2023-06-22T01:08:39;24.50;51.40
19060;DHT22;9663;48.996;8.334;2023-06-22T01:11:18;24.40;53.00
19060;DHT22;9663;48.996;8.334;2023-06-22T01:14:02;24.40;51.50
19060;DHT22;9663;48.996;8.334;2023-06-22T01:16:35;24.30;53.00
19060;DHT22;9663;48.996;8.334;2023-06-22T01:19:29;24.30;52.10
19060;DHT22;9663;48.996;8.334;2023-06-22T01:22:10;24.20;52.80
19060;DHT22;9663;48.996;8.334;2023-06-22T01:30:30;24.10;53.20
19060;DHT22;9663;48.996;8.334;2023-06-22T01:33:01;24.10;52.80
19060;DHT22;9663;48.996;8.334;2023-06-22T01:35:30;24.10;53.10
19060;DHT22;9663;48.996;8.334;2023-06-22T01:37:56;24.00;52.80
19060;DHT22;9663;48.996;8.334;2023-06-22T01:40:22;24.00;52.90
19060;DHT22;9663;48.996;8.334;2023-06-22T01:42:50;24.00;53.10
19060;DHT22;9663;48.996;8.334;2023-06-22T01:45:16;24.00;53.40
19060;DHT22;9663;48.996;8.334;2023-06-22T01:47:44;24.00;53.40
19060;DHT22;9663;48.996;8.334;2023-06-22T01:50:09;23.90;53.40
19060;DHT22;9663;48.996;8.334;2023-06-22T01:52:37;24.00;53.60
19060;DHT22;9663;48.996;8.334;2023-06-22T01:55:03;23.90;53.60
19060;DHT22;9663;48.996;8.334;2023-06-22T01:57:30;23.90;53.70
19060;DHT22;9663;48.996;8.334;2023-06-22T02:00:01;23.90;53.70
19060;DHT22;9663;48.996;8.334;2023-06-22T02:02:36;23.90;54.30
19060;DHT22;9663;48.996;8.334;2023-06-22T02:05:07;23.80;54.50
19060;DHT22;9663;48.996;8.334;2023-06-22T02:07:44;23.80;54.00
19060;DHT22;9663;48.996;8.334;2023-06-22T02:10:14;23.80;54.60
19060;DHT22;9663;48.996;8.334;2023-06-22T02:12:43;23.80;54.30
19060;DHT22;9663;48.996;8.334;2023-06-22T02:15:10;23.80;54.20
19060;DHT22;9663;48.996;8.334;2023-06-22T02:17:38;23.70;54.30
19060;DHT22;9663;48.996;8.334;2023-06-22T02:20:04;23.80;54.50
19060;DHT22;9663;48.996;8.334;2023-06-22T02:22:34;23.70;54.60
19060;DHT22;9663;48.996;8.334;2023-06-22T02:25:00;23.70;54.60
19060;DHT22;9663;48.996;8.334;2023-06-22T02:27:26;23.70;54.60
19060;DHT22;9663;48.996;8.334;2023-06-22T02:29:51;23.70;54.70
19060;DHT22;9663;48.996;8.334;2023-06-22T02:32:17;23.70;54.80
19060;DHT22;9663;48.996;8.334;2023-06-22T02:34:43;23.60;54.80
19060;DHT22;9663;48.996;8.334;2023-06-22T02:37:16;23.60;54.90
19060;DHT22;9663;48.996;8.334;2023-06-22T02:39:42;23.60;55.10
19060;DHT22;9663;48.996;8.334;2023-06-22T02:42:08;23.60;55.10
19060;DHT22;9663;48.996;8.334;2023-06-22T02:44:36;23.60;55.20
19060;DHT22;9663;48.996;8.334;2023-06-22T02:47:02;23.60;55.20
19060;DHT22;9663;48.996;8.334;2023-06-22T02:49:28;23.50;55.90
19060;DHT22;9663;48.996;8.334;2023-06-22T02:51:54;23.50;55.30
19060;DHT22;9663;48.996;8.334;2023-06-22T02:54:20;23.50;55.40
19060;DHT22;9663;48.996;8.334;2023-06-22T02:56:46;23.40;55.50
19060;DHT22;9663;48.996;8.334;2023-06-22T02:59:13;23.40;55.50
19060;DHT22;9663;48.996;8.334;2023-06-22T03:01:39;23.40;55.60
19060;DHT22;9663;48.996;8.334;2023-06-22T03:04:12;23.40;55.70
19060;DHT22;9663;48.996;8.334;2023-06-22T03:06:39;23.40;55.90
19060;DHT22;9663;48.996;8.334;2023-06-22T03:09:07;23.40;55.90
19060;DHT22;9663;48.996;8.334;2023-06-22T03:11:34;23.40;56.10
19060;DHT22;9663;48.996;8.334;2023-06-22T03:14:02;23.30;56.00
19060;DHT22;9663;48.996;8.334;2023-06-22T03:16:28;23.30;56.40
19060;DHT22;9663;48.996;8.334;2023-06-22T03:18:54;23.30;56.10
19060;DHT22;9663;48.996;8.334;2023-06-22T03:21:22;23.30;56.30
19060;DHT22;9663;48.996;8.334;2023-06-22T03:23:48;23.30;56.40
19060;DHT22;9663;48.996;8.334;2023-06-22T03:26:17;23.30;56.30
19060;DHT22;9663;48.996;8.334;2023-06-22T03:28:43;23.20;56.60
19060;DHT22;9663;48.996;8.334;2023-06-22T03:31:09;23.20;56.40
19060;DHT22;9663;48.996;8.334;2023-06-22T03:33:35;23.20;56.60
19060;DHT22;9663;48.996;8.334;2023-06-22T03:36:00;23.20;56.70
19060;DHT22;9663;48.996;8.334;2023-06-22T03:38:26;23.20;56.70
19060;DHT22;9663;48.996;8.334;2023-06-22T03:40:52;23.20;56.70
19060;DHT22;9663;48.996;8.334;2023-06-22T03:43:17;23.20;56.80
19060;DHT22;9663;48.996;8.334;2023-06-22T03:45:43;23.20;56.80
19060;DHT22;9663;48.996;8.334;2023-06-22T03:48:11;23.20;56.80
19060;DHT22;9663;48.996;8.334;2023-06-22T03:50:37;23.20;56.90
19060;DHT22;9663;48.996;8.334;2023-06-22T03:53:03;23.20;57.00
19060;DHT22;9663;48.996;8.334;2023-06-22T03:55:29;23.20;57.10
19060;DHT22;9663;48.996;8.334;2023-06-22T03:57:55;23.20;57.10
19060;DHT22;9663;48.996;8.334;2023-06-22T04:00:23;23.20;57.10
19060;DHT22;9663;48.996;8.334;2023-06-22T04:02:49;23.20;57.20
19060;DHT22;9663;48.996;8.334;2023-06-22T04:05:15;23.20;57.30
19060;DHT22;9663;48.996;8.334;2023-06-22T04:07:42;23.20;57.30
19060;DHT22;9663;48.996;8.334;2023-06-22T04:10:08;23.20;58.00
19060;DHT22;9663;48.996;8.334;2023-06-22T04:12:34;23.30;57.40
19060;DHT22;9663;48.996;8.334;2023-06-22T04:15:00;23.20;57.40
19060;DHT22;9663;48.996;8.334;2023-06-22T04:17:26;23.20;57.40
19060;DHT22;9663;48.996;8.334;2023-06-22T04:19:52;23.20;57.40
19060;DHT22;9663;48.996;8.334;2023-06-22T04:22:17;23.20;57.50
19060;DHT22;9663;48.996;8.334;2023-06-22T04:24:44;23.30;57.50
19060;DHT22;9663;48.996;8.334;2023-06-22T04:27:10;23.20;57.50
19060;DHT22;9663;48.996;8.334;2023-06-22T04:29:35;23.30;57.60
19060;DHT22;9663;48.996;8.334;2023-06-22T04:32:01;23.20;57.60
19060;DHT22;9663;48.996;8.334;2023-06-22T04:34:30;23.30;57.70
19060;DHT22;9663;48.996;8.334;2023-06-22T04:36:56;23.30;57.70
19060;DHT22;9663;48.996;8.334;2023-06-22T04:39:23;23.40;57.90
19060;DHT22;9663;48.996;8.334;2023-06-22T04:41:49;23.40;57.90
19060;DHT22;9663;48.996;8.334;2023-06-22T04:44:18;23.40;57.90
19060;DHT22;9663;48.996;8.334;2023-06-22T04:46:54;23.40;58.10
19060;DHT22;9663;48.996;8.334;2023-06-22T04:49:34;23.50;58.30
19060;DHT22;9663;48.996;8.334;2023-06-22T04:52:06;23.50;57.90
19060;DHT22;9663;48.996;8.334;2023-06-22T04:54:33;23.60;58.10
19060;DHT22;9663;48.996;8.334;2023-06-22T04:57:01;23.60;58.00
19060;DHT22;9663;48.996;8.334;2023-06-22T04:59:29;23.60;58.10
19060;DHT22;9663;48.996;8.334;2023-06-22T05:01:56;23.60;58.00
19060;DHT22;9663;48.996;8.334;2023-06-22T05:04:24;23.70;58.10
19060;DHT22;9663;48.996;8.334;2023-06-22T05:06:54;23.70;58.20
19060;DHT22;9663;48.996;8.334;2023-06-22T05:09:21;23.80;58.40
19060;DHT22;9663;48.996;8.334;2023-06-22T05:11:47;23.90;58.20
19060;DHT22;9663;48.996;8.334;2023-06-22T05:14:13;23.90;58.20
19060;DHT22;9663;48.996;8.334;2023-06-22T05:16:41;24.00;58.30
19060;DHT22;9663;48.996;8.334;2023-06-22T05:19:07;24.00;58.30
19060;DHT22;9663;48.996;8.334;2023-06-22T05:21:33;24.10;58.20
19060;DHT22;9663;48.996;8.334;2023-06-22T05:23:59;24.20;58.50
19060;DHT22;9663;48.996;8.334;2023-06-22T05:26:29;24.30;58.20
19060;DHT22;9663;48.996;8.334;2023-06-22T05:28:57;24.30;58.40
19060;DHT22;9663;48.996;8.334;2023-06-22T05:31:23;24.30;58.20
19060;DHT22;9663;48.996;8.334;2023-06-22T05:33:51;24.50;58.20
19060;DHT22;9663;48.996;8.334;2023-06-22T05:36:17;24.50;58.20
19060;DHT22;9663;48.996;8.334;2023-06-22T05:38:45;24.50;58.00
19060;DHT22;9663;48.996;8.334;2023-06-22T05:41:11;24.60;58.00
19060;DHT22;9663;48.996;8.334;2023-06-22T05:43:37;24.60;58.60
19060;DHT22;9663;48.996;8.334;2023-06-22T05:46:04;24.60;57.90
19060;DHT22;9663;48.996;8.334;2023-06-22T05:48:30;24.70;57.90
19060;DHT22;9663;48.996;8.334;2023-06-22T05:50:56;24.70;57.90
19060;DHT22;9663;48.996;8.334;2023-06-22T05:53:22;24.80;58.00
19060;DHT22;9663;48.996;8.334;2023-06-22T05:55:48;24.80;57.80
19060;DHT22;9663;48.996;8.334;2023-06-22T05:58:14;24.90;57.90
19060;DHT22;9663;48.996;8.334;2023-06-22T06:00:40;24.90;58.50
19060;DHT22;9663;48.996;8.334;2023-06-22T06:03:07;25.00;58.00
19060;DHT22;9663;48.996;8.334;2023-06-22T06:05:34;25.10;58.00
19060;DHT22;9663;48.996;8.334;2023-06-22T06:08:01;25.10;57.90
19060;DHT22;9663;48.996;8.334;2023-06-22T06:10:28;25.10;57.80
19060;DHT22;9663;48.996;8.334;2023-06-22T06:12:55;25.10;57.80
19060;DHT22;9663;48.996;8.334;2023-06-22T06:15:22;25.10;57.70
19060;DHT22;9663;48.996;8.334;2023-06-22T06:17:49;25.10;57.80
19060;DHT22;9663;48.996;8.334;2023-06-22T06:20:19;25.20;57.90
19060;DHT22;9663;48.996;8.334;2023-06-22T06:22:48;25.20;58.10
19060;DHT22;9663;48.996;8.334;2023-06-22T06:25:14;25.30;58.10
19060;DHT22;9663;48.996;8.334;2023-06-22T06:27:46;25.40;58.20
19060;DHT22;9663;48.996;8.334;2023-06-22T06:30:14;25.50;58.10
19060;DHT22;9663;48.996;8.334;2023-06-22T06:32:41;25.60;57.90
19060;DHT22;9663;48.996;8.334;2023-06-22T06:35:09;25.70;57.90
19060;DHT22;9663;48.996;8.334;2023-06-22T06:37:37;25.70;57.90
19060;DHT22;9663;48.996;8.334;2023-06-22T06:40:09;25.80;58.00
19060;DHT22;9663;48.996;8.334;2023-06-22T06:42:41;25.90;57.90
19060;DHT22;9663;48.996;8.334;2023-06-22T06:45:17;26.00;58.00
19060;DHT22;9663;48.996;8.334;2023-06-22T06:47:45;26.10;57.70
19060;DHT22;9663;48.996;8.334;2023-06-22T06:50:12;26.20;57.70
19060;DHT22;9663;48.996;8.334;2023-06-22T06:52:38;26.20;57.50
19060;DHT22;9663;48.996;8.334;2023-06-22T06:55:04;26.30;57.50
19060;DHT22;9663;48.996;8.334;2023-06-22T06:57:33;26.30;57.40
19060;DHT22;9663;48.996;8.334;2023-06-22T07:00:00;26.40;57.40
19060;DHT22;9663;48.996;8.334;2023-06-22T07:02:26;26.40;57.40
19060;DHT22;9663;48.996;8.334;2023-06-22T07:04:53;26.50;57.40
19060;DHT22;9663;48.996;8.334;2023-06-22T07:07:20;26.60;57.50
19060;DHT22;9663;48.996;8.334;2023-06-22T07:09:46;26.70;57.40
19060;DHT22;9663;48.996;8.334;2023-06-22T07:12:12;26.80;58.00
19060;DHT22;9663;48.996;8.334;2023-06-22T07:14:38;26.80;57.30
19060;DHT22;9663;48.996;8.334;2023-06-22T07:17:04;26.90;57.40
19060;DHT22;9663;48.996;8.334;2023-06-22T07:19:30;27.00;57.30
19060;DHT22;9663;48.996;8.334;2023-06-22T07:21:57;27.10;57.30
19060;DHT22;9663;48.996;8.334;2023-06-22T07:24:24;27.30;57.30
19060;DHT22;9663;48.996;8.334;2023-06-22T07:26:50;27.40;57.20
19060;DHT22;9663;48.996;8.334;2023-06-22T07:29:17;27.60;57.10
19060;DHT22;9663;48.996;8.334;2023-06-22T07:31:44;27.70;56.90
19060;DHT22;9663;48.996;8.334;2023-06-22T07:34:10;27.80;56.70
19060;DHT22;9663;48.996;8.334;2023-06-22T07:36:36;27.90;56.60
19060;DHT22;9663;48.996;8.334;2023-06-22T07:39:02;28.00;56.40
19060;DHT22;9663;48.996;8.334;2023-06-22T07:41:29;28.10;56.50
19060;DHT22;9663;48.996;8.334;2023-06-22T07:43:55;28.20;56.50
19060;DHT22;9663;48.996;8.334;2023-06-22T07:46:21;28.20;56.30
19060;DHT22;9663;48.996;8.334;2023-06-22T07:48:47;28.30;56.30
19060;DHT22;9663;48.996;8.334;2023-06-22T07:51:13;28.50;56.30
19060;DHT22;9663;48.996;8.334;2023-06-22T07:53:43;28.50;56.10
19060;DHT22;9663;48.996;8.334;2023-06-22T07:56:13;28.70;56.20
19060;DHT22;9663;48.996;8.334;2023-06-22T07:58:44;28.80;55.90
19060;DHT22;9663;48.996;8.334;2023-06-22T08:01:11;28.90;55.80
19060;DHT22;9663;48.996;8.334;2023-06-22T08:03:37;29.00;55.60
19060;DHT22;9663;48.996;8.334;2023-06-22T08:06:04;29.10;55.50
19060;DHT22;9663;48.996;8.334;2023-06-22T08:08:31;29.20;55.50
19060;DHT22;9663;48.996;8.334;2023-06-22T08:10:57;29.30;55.60
19060;DHT22;9663;48.996;8.334;2023-06-22T08:13:23;29.40;55.50
19060;DHT22;9663;48.996;8.334;2023-06-22T08:15:48;29.60;55.40
19060;DHT22;9663;48.996;8.334;2023-06-22T08:18:14;29.80;55.30
19060;DHT22;9663;48.996;8.334;2023-06-22T08:20:41;29.90;54.90
19060;DHT22;9663;48.996;8.334;2023-06-22T08:23:07;30.00;54.60
19060;DHT22;9663;48.996;8.334;2023-06-22T08:25:34;30.10;54.60
19060;DHT22;9663;48.996;8.334;2023-06-22T08:28:01;30.30;54.50
19060;DHT22;9663;48.996;8.334;2023-06-22T08:30:27;30.40;54.30
19060;DHT22;9663;48.996;8.334;2023-06-22T08:32:53;30.60;54.30
19060;DHT22;9663;48.996;8.334;2023-06-22T08:35:21;30.80;54.30
19060;DHT22;9663;48.996;8.334;2023-06-22T08:37:49;31.00;54.10
19060;DHT22;9663;48.996;8.334;2023-06-22T08:40:18;31.20;54.00
19060;DHT22;9663;48.996;8.334;2023-06-22T08:42:45;31.50;53.80
19060;DHT22;9663;48.996;8.334;2023-06-22T08:45:13;31.80;53.90
19060;DHT22;9663;48.996;8.334;2023-06-22T08:47:40;32.00;53.50
19060;DHT22;9663;48.996;8.334;2023-06-22T08:50:08;32.30;53.20
19060;DHT22;9663;48.996;8.334;2023-06-22T08:52:34;32.50;52.70
19060;DHT22;9663;48.996;8.334;2023-06-22T08:55:01;32.80;52.40
19060;DHT22;9663;48.996;8.334;2023-06-22T08:57:29;32.90;52.10
19060;DHT22;9663;48.996;8.334;2023-06-22T08:59:56;33.00;51.10
19060;DHT22;9663;48.996;8.334;2023-06-22T09:02:24;33.00;51.00
19060;DHT22;9663;48.996;8.334;2023-06-22T09:04:57;33.00;50.80
19060;DHT22;9663;48.996;8.334;2023-06-22T09:07:24;33.10;50.70
19060;DHT22;9663;48.996;8.334;2023-06-22T09:09:50;33.10;50.50
19060;DHT22;9663;48.996;8.334;2023-06-22T09:12:19;33.10;50.60
19060;DHT22;9663;48.996;8.334;2023-06-22T09:14:47;33.10;50.50
19060;DHT22;9663;48.996;8.334;2023-06-22T09:17:13;33.10;50.30
19060;DHT22;9663;48.996;8.334;2023-06-22T09:19:39;33.10;50.00
19060;DHT22;9663;48.996;8.334;2023-06-22T09:22:05;33.20;50.00
19060;DHT22;9663;48.996;8.334;2023-06-22T09:24:32;33.20;49.90
19060;DHT22;9663;48.996;8.334;2023-06-22T09:26:58;33.20;49.70
19060;DHT22;9663;48.996;8.334;2023-06-22T09:29:25;33.20;49.60
19060;DHT22;9663;48.996;8.334;2023-06-22T09:31:50;33.20;49.40
19060;DHT22;9663;48.996;8.334;2023-06-22T09:34:19;33.20;49.40
19060;DHT22;9663;48.996;8.334;2023-06-22T09:36:46;33.30;49.20
19060;DHT22;9663;48.996;8.334;2023-06-22T09:39:12;33.30;49.70
19060;DHT22;9663;48.996;8.334;2023-06-22T09:41:37;33.30;49.10
19060;DHT22;9663;48.996;8.334;2023-06-22T09:44:03;33.40;49.00
19060;DHT22;9663;48.996;8.334;2023-06-22T09:46:29;33.40;49.00
19060;DHT22;9663;48.996;8.334;2023-06-22T09:48:55;33.50;49.10
19060;DHT22;9663;48.996;8.334;2023-06-22T09:51:21;33.50;49.00
19060;DHT22;9663;48.996;8.334;2023-06-22T09:53:51;33.60;48.80
19060;DHT22;9663;48.996;8.334;2023-06-22T09:56:19;33.60;48.50
19060;DHT22;9663;48.996;8.334;2023-06-22T09:58:46;33.70;48.30
19060;DHT22;9663;48.996;8.334;2023-06-22T10:01:12;33.60;48.20
19060;DHT22;9663;48.996;8.334;2023-06-22T10:03:41;33.60;48.10
19060;DHT22;9663;48.996;8.334;2023-06-22T10:06:07;33.60;48.10
19060;DHT22;9663;48.996;8.334;2023-06-22T10:08:34;33.50;47.90
19060;DHT22;9663;48.996;8.334;2023-06-22T10:11:00;33.50;48.00
19060;DHT22;9663;48.996;8.334;2023-06-22T10:13:26;33.60;48.20
19060;DHT22;9663;48.996;8.334;2023-06-22T10:15:51;33.60;48.10
19060;DHT22;9663;48.996;8.334;2023-06-22T10:18:18;33.70;48.70
19060;DHT22;9663;48.996;8.334;2023-06-22T10:20:47;33.80;47.90
19060;DHT22;9663;48.996;8.334;2023-06-22T10:23:15;33.80;47.90
19060;DHT22;9663;48.996;8.334;2023-06-22T10:25:41;33.90;47.80
19060;DHT22;9663;48.996;8.334;2023-06-22T10:28:06;34.00;47.70
19060;DHT22;9663;48.996;8.334;2023-06-22T10:30:32;34.10;47.40
19060;DHT22;9663;48.996;8.334;2023-06-22T10:32:58;34.20;47.00
19060;DHT22;9663;48.996;8.334;2023-06-22T10:35:24;34.10;46.80
19060;DHT22;9663;48.996;8.334;2023-06-22T10:37:49;34.10;46.60
19060;DHT22;9663;48.996;8.334;2023-06-22T10:40:17;34.10;46.80
19060;DHT22;9663;48.996;8.334;2023-06-22T10:42:44;34.10;46.90
19060;DHT22;9663;48.996;8.334;2023-06-22T10:45:10;34.20;46.90
19060;DHT22;9663;48.996;8.334;2023-06-22T10:47:36;34.20;46.90
19060;DHT22;9663;48.996;8.334;2023-06-22T10:50:03;34.20;46.80
19060;DHT22;9663;48.996;8.334;2023-06-22T10:52:29;34.30;46.70
19060;DHT22;9663;48.996;8.334;2023-06-22T10:54:55;34.40;46.60
19060;DHT22;9663;48.996;8.334;2023-06-22T10:57:21;34.40;46.60
19060;DHT22;9663;48.996;8.334;2023-06-22T10:59:47;34.60;46.70
19060;DHT22;9663;48.996;8.334;2023-06-22T11:02:13;34.80;46.70
19060;DHT22;9663;48.996;8.334;2023-06-22T11:04:39;34.90;46.70
19060;DHT22;9663;48.996;8.334;2023-06-22T11:07:05;35.20;46.70
19060;DHT22;9663;48.996;8.334;2023-06-22T11:09:31;35.50;46.50
19060;DHT22;9663;48.996;8.334;2023-06-22T11:11:57;35.70;46.20
19060;DHT22;9663;48.996;8.334;2023-06-22T11:14:24;35.90;45.70
19060;DHT22;9663;48.996;8.334;2023-06-22T11:16:50;36.10;45.20
19060;DHT22;9663;48.996;8.334;2023-06-22T11:19:17;36.10;44.90
19060;DHT22;9663;48.996;8.334;2023-06-22T11:21:43;36.10;44.50
19060;DHT22;9663;48.996;8.334;2023-06-22T11:24:09;36.10;44.60
19060;DHT22;9663;48.996;8.334;2023-06-22T11:26:35;36.00;44.50
19060;DHT22;9663;48.996;8.334;2023-06-22T11:29:01;36.10;44.40
19060;DHT22;9663;48.996;8.334;2023-06-22T11:31:31;36.10;44.40
19060;DHT22;9663;48.996;8.334;2023-06-22T11:33:57;36.10;44.20
19060;DHT22;9663;48.996;8.334;2023-06-22T11:36:23;36.10;44.00
19060;DHT22;9663;48.996;8.334;2023-06-22T11:38:50;36.10;43.80
19060;DHT22;9663;48.996;8.334;2023-06-22T11:41:16;36.10;43.80
19060;DHT22;9663;48.996;8.334;2023-06-22T11:43:42;36.10;43.80
19060;DHT22;9663;48.996;8.334;2023-06-22T11:46:08;36.10;43.80
19060;DHT22;9663;48.996;8.334;2023-06-22T11:48:34;36.00;43.70
19060;DHT22;9663;48.996;8.334;2023-06-22T11:50:59;35.90;43.70
19060;DHT22;9663;48.996;8.334;2023-06-22T11:53:26;35.90;43.70
19060;DHT22;9663;48.996;8.334;2023-06-22T11:55:52;35.90;43.90
19060;DHT22;9663;48.996;8.334;2023-06-22T11:58:19;36.10;44.00
19060;DHT22;9663;48.996;8.334;2023-06-22T12:00:45;36.30;44.20
19060;DHT22;9663;48.996;8.334;2023-06-22T12:03:11;36.80;44.20
19060;DHT22;9663;48.996;8.334;2023-06-22T12:05:38;37.30;43.60
19060;DHT22;9663;48.996;8.334;2023-06-22T12:08:04;37.60;43.10
19060;DHT22;9663;48.996;8.334;2023-06-22T12:10:30;37.80;42.50
19060;DHT22;9663;48.996;8.334;2023-06-22T12:12:56;37.80;41.90
19060;DHT22;9663;48.996;8.334;2023-06-22T12:15:26;37.90;41.70
19060;DHT22;9663;48.996;8.334;2023-06-22T12:17:52;38.00;41.80
19060;DHT22;9663;48.996;8.334;2023-06-22T12:20:18;38.20;41.90
19060;DHT22;9663;48.996;8.334;2023-06-22T12:22:44;38.50;41.90
19060;DHT22;9663;48.996;8.334;2023-06-22T12:25:10;38.80;41.50
19060;DHT22;9663;48.996;8.334;2023-06-22T12:27:37;39.00;41.20
19060;DHT22;9663;48.996;8.334;2023-06-22T12:30:03;39.10;40.50
19060;DHT22;9663;48.996;8.334;2023-06-22T12:32:30;39.00;39.80
19060;DHT22;9663;48.996;8.334;2023-06-22T12:34:55;38.70;39.40
19060;DHT22;9663;48.996;8.334;2023-06-22T12:37:22;38.30;40.00
19060;DHT22;9663;48.996;8.334;2023-06-22T12:39:48;38.10;40.30
19060;DHT22;9663;48.996;8.334;2023-06-22T12:42:15;37.70;39.90
19060;DHT22;9663;48.996;8.334;2023-06-22T12:44:41;37.40;40.10
19060;DHT22;9663;48.996;8.334;2023-06-22T12:47:08;37.10;40.30
19060;DHT22;9663;48.996;8.334;2023-06-22T12:49:35;36.90;40.40
19060;DHT22;9663;48.996;8.334;2023-06-22T12:52:02;36.60;40.60
19060;DHT22;9663;48.996;8.334;2023-06-22T12:54:28;36.40;40.80
19060;DHT22;9663;48.996;8.334;2023-06-22T12:56:55;36.30;41.00
19060;DHT22;9663;48.996;8.334;2023-06-22T12:59:23;36.20;41.20
19060;DHT22;9663;48.996;8.334;2023-06-22T13:01:49;36.10;41.40
19060;DHT22;9663;48.996;8.334;2023-06-22T13:04:14;36.00;41.50
19060;DHT22;9663;48.996;8.334;2023-06-22T13:06:41;36.00;41.60
19060;DHT22;9663;48.996;8.334;2023-06-22T13:09:09;36.00;41.50
19060;DHT22;9663;48.996;8.334;2023-06-22T13:11:35;36.00;41.80
19060;DHT22;9663;48.996;8.334;2023-06-22T13:14:01;36.10;42.30
19060;DHT22;9663;48.996;8.334;2023-06-22T13:16:27;36.50;42.50
19060;DHT22;9663;48.996;8.334;2023-06-22T13:18:52;36.90;42.20
19060;DHT22;9663;48.996;8.334;2023-06-22T13:21:18;37.30;41.60
19060;DHT22;9663;48.996;8.334;2023-06-22T13:23:44;37.50;41.10
19060;DHT22;9663;48.996;8.334;2023-06-22T13:26:10;37.70;41.00
19060;DHT22;9663;48.996;8.334;2023-06-22T13:28:35;37.90;40.40
19060;DHT22;9663;48.996;8.334;2023-06-22T13:31:01;38.00;40.10
19060;DHT22;9663;48.996;8.334;2023-06-22T13:33:27;37.90;39.80
19060;DHT22;9663;48.996;8.334;2023-06-22T13:35:52;37.80;39.80
19060;DHT22;9663;48.996;8.334;2023-06-22T13:38:18;37.80;40.00
19060;DHT22;9663;48.996;8.334;2023-06-22T13:40:44;37.80;39.90
19060;DHT22;9663;48.996;8.334;2023-06-22T13:43:10;37.80;39.50
19060;DHT22;9663;48.996;8.334;2023-06-22T13:45:36;37.80;39.20
19060;DHT22;9663;48.996;8.334;2023-06-22T13:48:01;37.80;39.40
19060;DHT22;9663;48.996;8.334;2023-06-22T13:50:27;37.90;39.80
19060;DHT22;9663;48.996;8.334;2023-06-22T13:52:54;38.10;39.50
19060;DHT22;9663;48.996;8.334;2023-06-22T13:55:20;38.30;39.20
19060;DHT22;9663;48.996;8.334;2023-06-22T13:57:46;38.30;38.60
19060;DHT22;9663;48.996;8.334;2023-06-22T14:00:12;38.10;38.50
19060;DHT22;9663;48.996;8.334;2023-06-22T14:02:39;37.70;37.70
19060;DHT22;9663;48.996;8.334;2023-06-22T14:05:07;37.30;37.70
19060;DHT22;9663;48.996;8.334;2023-06-22T14:07:33;36.70;37.80
19060;DHT22;9663;48.996;8.334;2023-06-22T14:10:00;36.20;38.20
19060;DHT22;9663;48.996;8.334;2023-06-22T14:12:26;35.80;38.30
19060;DHT22;9663;48.996;8.334;2023-06-22T14:14:52;35.30;38.80
19060;DHT22;9663;48.996;8.334;2023-06-22T14:17:17;34.90;39.20
19060;DHT22;9663;48.996;8.334;2023-06-22T14:19:49;34.50;39.50
19060;DHT22;9663;48.996;8.334;2023-06-22T14:22:17;34.20;39.90
19060;DHT22;9663;48.996;8.334;2023-06-22T14:24:43;33.80;40.10
19060;DHT22;9663;48.996;8.334;2023-06-22T14:27:09;33.50;40.50
19060;DHT22;9663;48.996;8.334;2023-06-22T14:29:35;33.30;40.80
19060;DHT22;9663;48.996;8.334;2023-06-22T14:32:01;33.10;41.20
19060;DHT22;9663;48.996;8.334;2023-06-22T14:34:26;32.90;41.50
19060;DHT22;9663;48.996;8.334;2023-06-22T14:36:52;32.90;41.90
19060;DHT22;9663;48.996;8.334;2023-06-22T14:39:18;32.80;42.20
19060;DHT22;9663;48.996;8.334;2023-06-22T14:41:43;32.90;42.70
19060;DHT22;9663;48.996;8.334;2023-06-22T14:44:09;33.20;43.20
19060;DHT22;9663;48.996;8.334;2023-06-22T14:46:35;33.50;43.10
19060;DHT22;9663;48.996;8.334;2023-06-22T14:49:01;33.80;43.10
19060;DHT22;9663;48.996;8.334;2023-06-22T14:51:26;34.10;43.00
19060;DHT22;9663;48.996;8.334;2023-06-22T14:53:52;34.50;42.80
19060;DHT22;9663;48.996;8.334;2023-06-22T14:56:18;34.80;42.80
19060;DHT22;9663;48.996;8.334;2023-06-22T14:58:44;35.30;43.10
19060;DHT22;9663;48.996;8.334;2023-06-22T15:01:12;36.10;43.40
19060;DHT22;9663;48.996;8.334;2023-06-22T15:03:38;37.00;43.60
19060;DHT22;9663;48.996;8.334;2023-06-22T15:06:04;37.80;43.00
19060;DHT22;9663;48.996;8.334;2023-06-22T15:08:30;38.70;42.30
19060;DHT22;9663;48.996;8.334;2023-06-22T15:10:58;39.50;41.80
19060;DHT22;9663;48.996;8.334;2023-06-22T15:13:26;40.20;40.80
19060;DHT22;9663;48.996;8.334;2023-06-22T15:15:53;40.80;40.10
19060;DHT22;9663;48.996;8.334;2023-06-22T15:18:19;41.40;39.20
19060;DHT22;9663;48.996;8.334;2023-06-22T15:20:45;41.70;38.60
19060;DHT22;9663;48.996;8.334;2023-06-22T15:23:11;42.10;38.30
19060;DHT22;9663;48.996;8.334;2023-06-22T15:25:38;42.40;37.60
19060;DHT22;9663;48.996;8.334;2023-06-22T15:28:03;42.70;37.40
19060;DHT22;9663;48.996;8.334;2023-06-22T15:30:29;43.00;37.10
19060;DHT22;9663;48.996;8.334;2023-06-22T15:32:56;43.30;36.10
19060;DHT22;9663;48.996;8.334;2023-06-22T15:35:22;43.50;35.10
19060;DHT22;9663;48.996;8.334;2023-06-22T15:37:49;43.50;34.60
19060;DHT22;9663;48.996;8.334;2023-06-22T15:40:17;43.50;34.20
19060;DHT22;9663;48.996;8.334;2023-06-22T15:42:43;43.50;34.20
19060;DHT22;9663;48.996;8.334;2023-06-22T15:45:10;43.60;34.50
19060;DHT22;9663;48.996;8.334;2023-06-22T15:47:36;43.70;34.10
19060;DHT22;9663;48.996;8.334;2023-06-22T15:50:03;43.80;33.90